createdAt,value
2018-08-12T00:02:01.538Z,18.10
2018-08-12T00:04:29.023Z,18.00
2018-08-12T00:06:56.521Z,18.00
2018-08-12T00:09:23.983Z,18.10
2018-08-12T00:11:51.545Z,18.10
2018-08-12T00:14:19.080Z,18.00
2018-08-12T00:16:46.556Z,18.00
2018-08-12T00:19:14.012Z,17.90
2018-08-12T00:21:41.524Z,18.00
2018-08-12T00:24:08.999Z,18.00
2018-08-12T00:26:36.490Z,18.10
2018-08-12T00:29:04.000Z,18.10
2018-08-12T00:31:31.562Z,18.00
2018-08-12T00:33:59.021Z,17.90
2018-08-12T00:36:26.522Z,17.90
2018-08-12T00:38:54.011Z,17.80
2018-08-12T00:41:21.511Z,17.80
2018-08-12T00:43:48.983Z,17.80
2018-08-12T00:46:16.684Z,17.70
2018-08-12T00:48:44.169Z,17.60
2018-08-12T00:51:11.662Z,17.50
2018-08-12T00:53:39.135Z,17.30
2018-08-12T00:56:06.684Z,17.20
2018-08-12T00:58:34.154Z,17.50
2018-08-12T01:01:01.690Z,17.50
2018-08-12T01:03:29.315Z,17.40
2018-08-12T01:05:56.847Z,17.40
2018-08-12T01:08:24.306Z,17.40
2018-08-12T01:10:51.774Z,17.30
2018-08-12T01:13:19.223Z,17.50
2018-08-12T01:15:46.748Z,17.40
2018-08-12T01:18:14.298Z,17.30
2018-08-12T01:20:41.831Z,17.20
2018-08-12T01:23:09.338Z,17.30
2018-08-12T01:25:36.832Z,17.20
2018-08-12T01:28:04.859Z,17.00
2018-08-12T01:30:32.370Z,17.10
2018-08-12T01:32:59.855Z,17.20
2018-08-12T01:35:27.336Z,17.10
2018-08-12T01:37:54.822Z,16.90
2018-08-12T01:40:22.350Z,16.90
2018-08-12T01:42:49.865Z,17.00
2018-08-12T01:45:18.947Z,17.00
2018-08-12T01:47:46.438Z,17.00
2018-08-12T01:50:15.399Z,17.00
2018-08-12T01:52:42.891Z,16.90
2018-08-12T01:55:10.913Z,16.90
2018-08-12T01:57:38.973Z,17.00
2018-08-12T02:00:09.194Z,17.00
2018-08-12T02:02:36.847Z,16.70
2018-08-12T02:05:05.239Z,16.70
2018-08-12T02:07:32.763Z,16.70
2018-08-12T02:10:00.382Z,16.80
2018-08-12T02:12:29.029Z,16.60
2018-08-12T02:14:56.475Z,16.70
2018-08-12T02:17:23.942Z,16.60
2018-08-12T02:19:51.390Z,16.60
2018-08-12T02:22:18.830Z,16.70
2018-08-12T02:24:46.334Z,16.60
2018-08-12T02:27:13.870Z,16.50
2018-08-12T02:29:41.308Z,16.60
2018-08-12T02:32:08.832Z,16.60
2018-08-12T02:34:36.259Z,16.60
2018-08-12T02:37:03.781Z,16.50
2018-08-12T02:39:31.343Z,16.50
2018-08-12T02:41:58.865Z,16.50
2018-08-12T02:44:26.328Z,16.40
2018-08-12T02:46:53.819Z,16.50
2018-08-12T02:49:21.327Z,16.50
2018-08-12T02:51:49.043Z,16.50
2018-08-12T02:54:16.471Z,16.50
2018-08-12T02:56:44.000Z,16.40
2018-08-12T02:59:11.491Z,16.20
2018-08-12T03:01:39.233Z,16.30
2018-08-12T03:04:06.755Z,16.30
2018-08-12T03:06:34.351Z,16.30
2018-08-12T03:09:01.903Z,16.10
2018-08-12T03:11:29.363Z,16.00
2018-08-12T03:13:57.074Z,16.00
2018-08-12T03:16:24.528Z,16.00
2018-08-12T03:18:51.993Z,16.00
2018-08-12T03:21:19.496Z,16.20
2018-08-12T03:23:46.939Z,16.10
2018-08-12T03:26:14.411Z,16.20
2018-08-12T03:28:41.881Z,16.00
2018-08-12T03:31:09.395Z,16.10
2018-08-12T03:33:36.890Z,15.90
2018-08-12T03:36:04.394Z,15.90
2018-08-12T03:38:31.902Z,15.80
2018-08-12T03:40:59.961Z,15.80
2018-08-12T03:43:27.436Z,15.70
2018-08-12T03:45:55.040Z,15.40
2018-08-12T03:48:22.507Z,15.40
2018-08-12T03:50:50.030Z,15.50
2018-08-12T03:53:17.463Z,15.50
2018-08-12T03:55:45.123Z,15.30
2018-08-12T03:58:12.649Z,15.30
2018-08-12T04:00:40.207Z,15.40
2018-08-12T04:03:07.785Z,15.20
2018-08-12T04:05:35.279Z,15.30
2018-08-12T04:08:02.766Z,15.20
2018-08-12T04:10:30.279Z,15.30
2018-08-12T04:12:57.744Z,15.40
2018-08-12T04:15:25.200Z,15.40
2018-08-12T04:17:52.691Z,15.40
2018-08-12T04:20:20.250Z,15.40
2018-08-12T04:22:47.699Z,15.30
2018-08-12T04:25:15.260Z,15.40
2018-08-12T04:27:42.731Z,15.40
2018-08-12T04:30:10.800Z,15.50
2018-08-12T04:32:38.271Z,15.30
2018-08-12T04:35:06.709Z,15.40
2018-08-12T04:37:34.171Z,15.20
2018-08-12T04:40:01.709Z,15.00
2018-08-12T04:42:29.206Z,15.00
2018-08-12T04:44:56.718Z,14.90
2018-08-12T04:47:24.198Z,15.00
2018-08-12T04:49:51.700Z,15.00
2018-08-12T04:52:19.230Z,14.90
2018-08-12T04:54:46.676Z,14.90
2018-08-12T04:57:14.167Z,15.10
2018-08-12T04:59:41.688Z,15.10
2018-08-12T05:02:09.188Z,15.10
2018-08-12T05:04:36.618Z,15.00
2018-08-12T05:07:04.258Z,15.20
2018-08-12T05:09:31.723Z,15.20
2018-08-12T05:11:59.218Z,15.20
2018-08-12T05:14:26.758Z,15.20
2018-08-12T05:16:54.303Z,15.30
2018-08-12T05:19:21.755Z,15.40
2018-08-12T05:21:49.263Z,15.30
2018-08-12T05:24:16.734Z,15.30
2018-08-12T05:26:44.215Z,15.30
2018-08-12T05:29:11.756Z,15.40
2018-08-12T05:31:39.263Z,15.30
2018-08-12T05:34:06.795Z,15.50
2018-08-12T05:36:34.336Z,15.60
2018-08-12T05:39:01.799Z,15.70
2018-08-12T05:41:29.371Z,15.80
2018-08-12T05:43:56.918Z,15.80
2018-08-12T05:46:24.354Z,15.80
2018-08-12T05:48:51.909Z,15.80
2018-08-12T05:51:19.554Z,15.90
2018-08-12T05:53:47.082Z,15.90
2018-08-12T05:56:14.708Z,15.90
2018-08-12T05:58:42.131Z,15.90
2018-08-12T06:01:09.593Z,15.80
2018-08-12T06:03:37.073Z,15.80
2018-08-12T06:06:04.664Z,15.80
2018-08-12T06:08:32.130Z,16.00
2018-08-12T06:10:59.615Z,16.10
2018-08-12T06:13:27.098Z,16.10
2018-08-12T06:15:54.582Z,16.20
2018-08-12T06:18:22.031Z,16.10
2018-08-12T06:20:49.505Z,16.10
2018-08-12T06:23:16.967Z,16.20
2018-08-12T06:25:44.493Z,16.20
2018-08-12T06:28:11.959Z,16.40
2018-08-12T06:30:39.567Z,16.50
2018-08-12T06:33:07.368Z,16.50
2018-08-12T06:35:38.861Z,16.50
2018-08-12T06:38:09.813Z,16.60
2018-08-12T06:40:39.430Z,16.70
2018-08-12T06:43:10.946Z,16.80
2018-08-12T06:45:38.829Z,16.60
2018-08-12T06:48:06.424Z,16.90
2018-08-12T06:50:33.923Z,16.90
2018-08-12T06:53:03.116Z,16.80
2018-08-12T06:55:31.208Z,17.00
2018-08-12T06:57:58.737Z,17.00
2018-08-12T07:00:26.263Z,17.10
2018-08-12T07:02:53.816Z,17.20
2018-08-12T07:05:21.330Z,17.20
2018-08-12T07:07:49.596Z,17.30
2018-08-12T07:10:17.119Z,17.20
2018-08-12T07:12:44.838Z,17.40
2018-08-12T07:15:14.878Z,17.40
2018-08-12T07:17:43.510Z,17.60
2018-08-12T07:20:12.581Z,17.70
2018-08-12T07:22:40.730Z,17.70
2018-08-12T07:25:10.132Z,17.70
2018-08-12T07:27:38.212Z,17.90
2018-08-12T07:30:08.245Z,18.00
2018-08-12T07:32:36.904Z,18.00
2018-08-12T07:35:06.272Z,18.10
2018-08-12T07:37:33.829Z,18.20
2018-08-12T07:40:01.512Z,18.30
2018-08-12T07:42:29.062Z,18.30
2018-08-12T07:44:56.523Z,18.30
2018-08-12T07:47:24.111Z,18.50
2018-08-12T07:49:51.593Z,18.50
2018-08-12T07:52:19.399Z,18.90
2018-08-12T07:54:47.296Z,18.90
2018-08-12T07:57:15.153Z,19.00
2018-08-12T07:59:42.721Z,19.20
2018-08-12T08:02:10.344Z,19.40
2018-08-12T08:04:38.059Z,19.40
2018-08-12T08:07:06.308Z,19.60
2018-08-12T08:09:34.001Z,19.70
2018-08-12T08:12:01.800Z,19.90
2018-08-12T08:14:30.038Z,20.00
2018-08-12T08:16:57.688Z,20.30
2018-08-12T08:19:25.566Z,20.60
2018-08-12T08:21:54.106Z,20.70
2018-08-12T08:24:21.891Z,21.00
2018-08-12T08:26:49.452Z,21.20
2018-08-12T08:29:17.002Z,21.30
2018-08-12T08:31:44.761Z,21.60
2018-08-12T08:34:12.191Z,21.70
2018-08-12T08:36:39.956Z,21.70
2018-08-12T08:39:13.335Z,21.80
2018-08-12T08:41:41.314Z,21.90
2018-08-12T08:44:09.024Z,22.20
2018-08-12T08:46:36.638Z,22.30
2018-08-12T08:49:04.372Z,22.50
2018-08-12T08:51:31.971Z,22.50
2018-08-12T08:54:00.465Z,22.60
2018-08-12T08:56:27.959Z,22.80
2018-08-12T08:58:55.487Z,23.00
2018-08-12T09:01:23.181Z,23.10
2018-08-12T09:03:50.696Z,23.30
2018-08-12T09:06:18.234Z,23.40
2018-08-12T09:08:46.042Z,23.60
2018-08-12T09:11:13.434Z,23.60
2018-08-12T09:13:40.948Z,23.70
2018-08-12T09:16:08.452Z,23.90
2018-08-12T09:18:35.981Z,23.90
2018-08-12T09:21:03.647Z,23.90
2018-08-12T09:23:31.861Z,24.00
2018-08-12T09:25:59.444Z,24.20
2018-08-12T09:28:27.087Z,24.30
2018-08-12T09:30:54.655Z,24.30
2018-08-12T09:33:22.164Z,24.50
2018-08-12T09:35:49.716Z,24.70
2018-08-12T09:38:17.199Z,24.80
2018-08-12T09:40:44.841Z,24.90
2018-08-12T09:43:13.199Z,24.90
2018-08-12T09:45:40.842Z,25.20
2018-08-12T09:48:08.452Z,25.20
2018-08-12T09:50:36.096Z,25.40
2018-08-12T09:53:03.675Z,25.50
2018-08-12T09:55:31.313Z,25.60
2018-08-12T09:57:58.819Z,25.60
2018-08-12T10:00:28.488Z,25.80
2018-08-12T10:03:01.052Z,25.90
2018-08-12T10:05:28.631Z,25.90
2018-08-12T10:07:56.106Z,25.80
2018-08-12T10:10:23.915Z,26.20
2018-08-12T10:12:51.504Z,26.30
2018-08-12T10:15:19.051Z,26.10
2018-08-12T10:17:48.811Z,26.50
2018-08-12T10:20:16.523Z,26.40
2018-08-12T10:22:44.161Z,26.50
2018-08-12T10:25:11.635Z,26.80
2018-08-12T10:27:39.200Z,27.00
2018-08-12T10:30:08.806Z,27.20
2018-08-12T10:32:36.351Z,27.30
2018-08-12T10:35:05.441Z,27.60
2018-08-12T10:37:33.094Z,27.60
2018-08-12T10:40:00.688Z,27.80
2018-08-12T10:42:28.180Z,27.70
2018-08-12T10:44:55.777Z,27.90
2018-08-12T10:47:23.387Z,27.90
2018-08-12T10:49:51.019Z,28.10
2018-08-12T10:52:18.720Z,28.10
2018-08-12T10:54:46.955Z,28.30
2018-08-12T10:57:14.668Z,28.30
2018-08-12T10:59:42.251Z,28.40
2018-08-12T11:02:10.041Z,28.50
2018-08-12T11:04:37.636Z,28.70
2018-08-12T11:07:05.235Z,29.00
2018-08-12T11:09:32.914Z,29.10
2018-08-12T11:12:00.471Z,29.20
2018-08-12T11:14:27.978Z,29.40
2018-08-12T11:16:55.462Z,29.50
2018-08-12T11:19:23.080Z,29.40
2018-08-12T11:21:50.602Z,29.40
2018-08-12T11:24:18.433Z,29.50
2018-08-12T11:26:46.115Z,29.40
2018-08-12T11:29:14.610Z,29.40
2018-08-12T11:31:42.842Z,29.40
2018-08-12T11:34:13.547Z,29.40
2018-08-12T11:36:41.786Z,29.30
2018-08-12T11:39:14.815Z,29.40
2018-08-12T11:41:44.550Z,29.70
2018-08-12T11:44:12.186Z,30.10
2018-08-12T11:46:39.811Z,30.70
2018-08-12T11:49:07.349Z,31.90
2018-08-12T11:51:34.864Z,32.60
2018-08-12T11:54:02.397Z,33.80
2018-08-12T11:56:30.140Z,34.90
2018-08-12T11:58:57.637Z,35.80
2018-08-12T12:01:25.134Z,36.40
2018-08-12T12:03:52.648Z,37.30
2018-08-12T12:06:20.070Z,37.00
2018-08-12T12:08:47.598Z,38.20
2018-08-12T12:11:15.102Z,39.00
2018-08-12T12:13:42.613Z,39.20
2018-08-12T12:16:10.107Z,39.50
2018-08-12T12:18:37.607Z,39.40
2018-08-12T12:21:05.063Z,38.60
2018-08-12T12:23:32.573Z,37.60
2018-08-12T12:26:00.101Z,36.90
2018-08-12T12:28:27.533Z,36.50
2018-08-12T12:30:55.039Z,36.30
2018-08-12T12:33:22.578Z,36.00
2018-08-12T12:35:50.084Z,35.60
2018-08-12T12:38:17.671Z,35.20
2018-08-12T12:40:45.195Z,35.10
2018-08-12T12:43:12.688Z,35.10
2018-08-12T12:45:40.182Z,35.30
2018-08-12T12:48:07.633Z,35.70
2018-08-12T12:50:35.165Z,35.90
2018-08-12T12:53:02.643Z,35.50
2018-08-12T12:55:30.136Z,35.80
2018-08-12T12:57:57.607Z,36.00
2018-08-12T13:00:25.171Z,35.90
2018-08-12T13:02:52.659Z,36.10
2018-08-12T13:05:21.091Z,36.00
2018-08-12T13:07:49.415Z,36.30
2018-08-12T13:10:17.592Z,36.00
2018-08-12T13:12:45.136Z,35.60
2018-08-12T13:15:13.539Z,35.60
2018-08-12T13:17:42.170Z,35.80
2018-08-12T13:20:12.155Z,36.20
2018-08-12T13:22:39.730Z,36.30
2018-08-12T13:25:09.936Z,36.40
2018-08-12T13:27:37.460Z,36.40
2018-08-12T13:30:05.611Z,35.70
2018-08-12T13:32:33.071Z,35.30
2018-08-12T13:35:00.606Z,34.60
2018-08-12T13:37:28.087Z,34.40
2018-08-12T13:39:55.656Z,34.60
2018-08-12T13:42:23.247Z,34.60
2018-08-12T13:44:50.899Z,34.30
2018-08-12T13:47:18.367Z,33.90
2018-08-12T13:49:46.017Z,34.10
2018-08-12T13:52:14.632Z,34.30
2018-08-12T13:54:42.203Z,34.10
2018-08-12T13:57:09.720Z,34.60
2018-08-12T13:59:38.203Z,34.70
2018-08-12T14:02:06.323Z,34.50
2018-08-12T14:04:33.852Z,34.20
2018-08-12T14:07:01.507Z,34.30
2018-08-12T14:09:29.023Z,34.10
2018-08-12T14:11:56.511Z,34.30
2018-08-12T14:14:24.049Z,34.40
2018-08-12T14:16:51.659Z,34.20
2018-08-12T14:19:19.641Z,34.40
2018-08-12T14:21:47.756Z,34.60
2018-08-12T14:24:15.764Z,35.00
2018-08-12T14:26:43.827Z,35.30
2018-08-12T14:29:11.936Z,35.50
2018-08-12T14:31:40.111Z,35.50
2018-08-12T14:34:07.643Z,34.90
2018-08-12T14:36:35.711Z,34.70
2018-08-12T14:39:05.039Z,34.40
2018-08-12T14:41:33.483Z,34.30
2018-08-12T14:44:01.728Z,34.00
2018-08-12T14:46:29.511Z,33.40
2018-08-12T14:48:58.332Z,32.80
2018-08-12T14:51:27.969Z,32.60
2018-08-12T14:53:55.798Z,32.10
2018-08-12T14:56:23.779Z,31.80
2018-08-12T14:58:51.641Z,31.50
2018-08-12T15:01:19.978Z,30.90
2018-08-12T15:03:49.506Z,30.70
2018-08-12T15:06:17.379Z,30.10
2018-08-12T15:08:46.970Z,29.90
2018-08-12T15:11:14.519Z,29.70
2018-08-12T15:13:42.084Z,29.50
2018-08-12T15:16:09.606Z,29.20
2018-08-12T15:18:37.123Z,29.20
2018-08-12T15:21:04.571Z,29.00
2018-08-12T15:23:32.084Z,29.00
2018-08-12T15:25:59.555Z,28.90
2018-08-12T15:28:27.077Z,28.80
2018-08-12T15:30:54.595Z,28.70
2018-08-12T15:33:22.188Z,28.70
2018-08-12T15:35:49.674Z,28.60
2018-08-12T15:38:17.119Z,28.60
2018-08-12T15:40:44.762Z,28.50
2018-08-12T15:43:12.262Z,28.30
2018-08-12T15:45:39.880Z,28.20
2018-08-12T15:48:07.374Z,28.20
2018-08-12T15:50:34.902Z,28.10
2018-08-12T15:53:02.339Z,28.00
2018-08-12T15:55:29.861Z,28.00
2018-08-12T15:57:57.347Z,27.90
2018-08-12T16:00:24.848Z,27.80
2018-08-12T16:02:52.338Z,27.80
2018-08-12T16:05:19.818Z,27.70
2018-08-12T16:07:48.026Z,27.50
2018-08-12T16:10:23.169Z,27.60
2018-08-12T16:12:51.907Z,27.60
2018-08-12T16:15:19.618Z,27.40
2018-08-12T16:17:47.167Z,27.50
2018-08-12T16:20:14.704Z,27.40
2018-08-12T16:22:42.295Z,27.40
2018-08-12T16:25:12.247Z,27.60
2018-08-12T16:27:40.224Z,27.80
2018-08-12T16:30:09.233Z,27.70
2018-08-12T16:32:36.874Z,27.60
2018-08-12T16:35:04.623Z,27.60
2018-08-12T16:37:32.117Z,27.60
2018-08-12T16:39:59.626Z,27.40
2018-08-12T16:42:27.209Z,27.40
2018-08-12T16:44:54.643Z,27.20
2018-08-12T16:47:22.235Z,27.20
2018-08-12T16:49:49.896Z,27.00
2018-08-12T16:52:17.330Z,26.90
2018-08-12T16:54:44.820Z,27.00
2018-08-12T16:57:12.366Z,26.80
2018-08-12T16:59:40.451Z,26.60
2018-08-12T17:02:07.947Z,26.70
2018-08-12T17:04:35.455Z,26.50
2018-08-12T17:07:03.311Z,26.40
2018-08-12T17:09:30.933Z,26.50
2018-08-12T17:11:58.410Z,26.40
2018-08-12T17:14:26.136Z,26.40
2018-08-12T17:16:53.591Z,26.30
2018-08-12T17:19:21.241Z,26.10
2018-08-12T17:21:50.647Z,26.20
2018-08-12T17:24:18.095Z,26.10
2018-08-12T17:26:46.311Z,26.10
2018-08-12T17:29:13.854Z,25.90
2018-08-12T17:31:41.303Z,26.10
2018-08-12T17:34:08.786Z,26.10
2018-08-12T17:36:36.298Z,26.10
2018-08-12T17:39:06.883Z,26.10
2018-08-12T17:41:34.343Z,26.00
2018-08-12T17:44:01.832Z,26.10
2018-08-12T17:46:29.383Z,26.00
2018-08-12T17:48:57.156Z,25.90
2018-08-12T17:51:24.615Z,25.80
2018-08-12T17:53:52.054Z,25.80
2018-08-12T17:56:22.148Z,25.80
2018-08-12T17:58:49.689Z,25.60
2018-08-12T18:01:17.219Z,25.60
2018-08-12T18:03:44.749Z,25.60
2018-08-12T18:06:14.081Z,25.50
2018-08-12T18:08:42.622Z,25.40
2018-08-12T18:11:11.101Z,25.40
2018-08-12T18:13:40.455Z,25.40
2018-08-12T18:16:09.095Z,25.30
2018-08-12T18:18:36.704Z,25.20
2018-08-12T18:21:05.223Z,25.20
2018-08-12T18:23:33.406Z,25.20
2018-08-12T18:26:01.576Z,25.00
2018-08-12T18:28:29.140Z,25.00
2018-08-12T18:30:56.654Z,25.00
2018-08-12T18:33:24.368Z,24.90
2018-08-12T18:35:51.888Z,24.90
2018-08-12T18:38:19.399Z,24.80
2018-08-12T18:40:47.297Z,24.70
2018-08-12T18:43:14.907Z,24.70
2018-08-12T18:45:43.120Z,24.70
2018-08-12T18:48:10.596Z,24.60
2018-08-12T18:50:38.044Z,24.60
2018-08-12T18:53:06.076Z,24.50
2018-08-12T18:55:33.655Z,24.50
2018-08-12T18:58:01.617Z,24.40
2018-08-12T19:00:29.331Z,24.30
2018-08-12T19:02:56.847Z,24.20
2018-08-12T19:05:24.382Z,24.20
2018-08-12T19:07:52.242Z,24.10
2018-08-12T19:10:19.759Z,24.10
2018-08-12T19:12:49.295Z,24.00
2018-08-12T19:15:16.773Z,24.00
2018-08-12T19:17:44.507Z,24.00
2018-08-12T19:20:12.027Z,23.80
2018-08-12T19:22:39.795Z,23.80
2018-08-12T19:25:08.295Z,23.70
2018-08-12T19:27:36.869Z,23.70
2018-08-12T19:30:06.733Z,23.70
2018-08-12T19:32:34.263Z,23.70
2018-08-12T19:35:02.861Z,23.60
2018-08-12T19:37:31.137Z,23.60
2018-08-12T19:39:59.480Z,23.60
2018-08-12T19:42:28.368Z,23.60
2018-08-12T19:44:56.526Z,23.50
2018-08-12T19:47:24.544Z,23.40
2018-08-12T19:49:52.183Z,23.40
2018-08-12T19:52:21.765Z,23.40
2018-08-12T19:54:49.532Z,23.30
2018-08-12T19:57:19.406Z,23.20
2018-08-12T19:59:47.061Z,23.20
2018-08-12T20:02:15.548Z,23.20
2018-08-12T20:04:49.096Z,23.10
2018-08-12T20:07:18.431Z,23.10
2018-08-12T20:09:47.651Z,23.10
2018-08-12T20:12:16.233Z,23.00
2018-08-12T20:14:44.353Z,23.00
2018-08-12T20:17:11.929Z,23.00
2018-08-12T20:19:41.601Z,22.80
2018-08-12T20:22:11.685Z,22.90
2018-08-12T20:24:40.386Z,22.80
2018-08-12T20:27:08.999Z,22.80
2018-08-12T20:29:37.004Z,22.80
2018-08-12T20:32:04.946Z,22.70
2018-08-12T20:34:32.671Z,22.60
2018-08-12T20:37:00.153Z,22.70
2018-08-12T20:39:28.130Z,22.60
2018-08-12T20:41:57.525Z,22.50
2018-08-12T20:44:25.183Z,22.50
2018-08-12T20:46:52.877Z,22.40
2018-08-12T20:49:20.508Z,22.30
2018-08-12T20:51:49.314Z,22.30
2018-08-12T20:54:17.236Z,22.30
2018-08-12T20:56:45.601Z,22.40
2018-08-12T20:59:15.017Z,22.20
2018-08-12T21:01:47.969Z,22.00
2018-08-12T21:04:15.581Z,22.10
2018-08-12T21:06:43.360Z,22.00
2018-08-12T21:09:11.732Z,21.90
2018-08-12T21:11:39.797Z,22.00
2018-08-12T21:14:09.679Z,22.00
2018-08-12T21:16:37.791Z,21.90
2018-08-12T21:19:05.837Z,21.90
2018-08-12T21:21:33.971Z,21.90
2018-08-12T21:24:01.803Z,21.90
2018-08-12T21:26:29.517Z,21.80
2018-08-12T21:28:58.005Z,21.80
2018-08-12T21:31:26.031Z,21.80
2018-08-12T21:33:53.700Z,21.80
2018-08-12T21:36:22.002Z,21.70
2018-08-12T21:38:49.760Z,21.60
2018-08-12T21:41:17.409Z,21.70
2018-08-12T21:43:45.802Z,21.70
2018-08-12T21:46:13.385Z,21.60
2018-08-12T21:48:40.938Z,21.70
2018-08-12T21:51:08.385Z,21.70
2018-08-12T21:53:36.215Z,21.60
2018-08-12T21:56:03.819Z,21.50
2018-08-12T21:58:31.306Z,21.40
2018-08-12T22:00:59.067Z,21.20
2018-08-12T22:03:26.572Z,21.30
2018-08-12T22:05:54.153Z,21.30
2018-08-12T22:08:22.568Z,21.30
2018-08-12T22:10:50.191Z,21.30
2018-08-12T22:13:17.800Z,21.30
2018-08-12T22:15:45.484Z,21.20
2018-08-12T22:18:12.923Z,21.20
2018-08-12T22:20:40.487Z,21.30
2018-08-12T22:23:08.019Z,21.30
2018-08-12T22:25:37.504Z,21.20
2018-08-12T22:28:05.373Z,21.10
2018-08-12T22:30:32.852Z,21.00
2018-08-12T22:33:00.371Z,21.20
2018-08-12T22:35:27.908Z,21.00
2018-08-12T22:37:55.395Z,21.00
2018-08-12T22:40:22.869Z,20.90
2018-08-12T22:42:50.366Z,21.10
2018-08-12T22:45:17.843Z,21.10
2018-08-12T22:47:45.319Z,21.10
2018-08-12T22:50:13.080Z,21.00
2018-08-12T22:52:40.551Z,20.90
2018-08-12T22:55:08.609Z,20.80
2018-08-12T22:57:37.041Z,20.80
2018-08-12T23:00:08.920Z,20.80
2018-08-12T23:02:36.386Z,20.40
2018-08-12T23:05:04.378Z,20.60
2018-08-12T23:07:33.083Z,20.40
2018-08-12T23:10:01.212Z,20.30
2018-08-12T23:12:28.695Z,20.30
2018-08-12T23:17:04.177Z,20.30
2018-08-12T23:19:31.835Z,20.40
2018-08-12T23:21:59.320Z,20.40
2018-08-12T23:24:26.835Z,20.40
2018-08-12T23:26:54.804Z,20.30
2018-08-12T23:29:22.294Z,20.30
2018-08-12T23:31:49.838Z,20.30
2018-08-12T23:34:17.295Z,20.40
2018-08-12T23:36:44.769Z,20.40
2018-08-12T23:39:12.893Z,20.40
2018-08-12T23:41:40.854Z,20.40
2018-08-12T23:44:09.040Z,20.30
2018-08-12T23:46:36.643Z,20.30
2018-08-12T23:49:04.387Z,20.30
2018-08-12T23:51:32.586Z,20.30
2018-08-12T23:54:00.177Z,20.30
2018-08-12T23:59:11.648Z,20.20
